createdAt,value
2022-08-22T07:55:25.879Z,100038.75
2022-08-22T07:57:58.176Z,100047.78
2022-08-22T08:00:29.213Z,100055.00
2022-08-22T08:03:00.446Z,100048.53
2022-08-22T08:05:32.520Z,100035.72
2022-08-22T08:08:03.965Z,100053.13
2022-08-22T08:10:35.961Z,100052.75
2022-08-22T08:13:11.878Z,100054.69
2022-08-22T08:15:42.437Z,100058.84
2022-08-22T08:18:19.470Z,100054.13
2022-08-22T08:20:52.387Z,100056.59
2022-08-22T08:23:22.254Z,100055.88
2022-08-22T08:26:13.029Z,100060.03
2022-08-22T08:28:44.455Z,100053.03
2022-08-22T08:31:23.494Z,100061.22
2022-08-22T08:33:59.870Z,100063.25
2022-08-22T08:36:49.015Z,100060.84
2022-08-22T08:39:25.831Z,100057.16
2022-08-22T08:43:03.188Z,100061.75
2022-08-22T08:45:59.306Z,100052.72
2022-08-22T08:48:51.885Z,100044.59
2022-08-22T08:51:36.672Z,100059.13
2022-08-22T08:54:33.451Z,100053.47
2022-08-22T08:57:12.702Z,100048.81
2022-08-22T08:59:53.903Z,100046.41
2022-08-22T09:02:44.480Z,100053.66
2022-08-22T09:05:41.050Z,100038.53
2022-08-22T09:08:42.591Z,100037.31
2022-08-22T09:11:47.088Z,100036.75
2022-08-22T09:14:40.639Z,100039.81
2022-08-22T09:17:39.751Z,100046.03
2022-08-22T09:20:24.705Z,100042.97
2022-08-22T09:23:21.798Z,100051.25
2022-08-22T09:25:55.335Z,100044.50
2022-08-22T09:28:31.033Z,100045.25
2022-08-22T09:31:21.828Z,100043.41
2022-08-22T09:34:09.997Z,100053.53
2022-08-22T09:36:55.683Z,100039.13
2022-08-22T09:39:33.356Z,100043.88
2022-08-22T09:42:12.480Z,100044.91
2022-08-22T09:44:53.468Z,100029.47
2022-08-22T09:47:32.805Z,100036.72
2022-08-22T09:50:13.829Z,100042.13
2022-08-22T09:53:00.413Z,100044.63
2022-08-22T09:55:45.207Z,100044.38
2022-08-22T09:58:23.874Z,100035.44
2022-08-22T10:01:01.066Z,100023.22
2022-08-22T10:03:54.960Z,100035.97
2022-08-22T10:06:31.866Z,100034.88
2022-08-22T10:09:09.026Z,100023.16
2022-08-22T10:11:43.686Z,100032.41
2022-08-22T10:14:22.021Z,100032.03
2022-08-22T10:17:04.133Z,100032.03
2022-08-22T10:19:41.902Z,100037.81
2022-08-22T10:22:29.829Z,100037.22
2022-08-22T10:25:35.457Z,100040.94
2022-08-22T10:28:17.825Z,100037.81
2022-08-22T10:30:55.018Z,100040.31
2022-08-22T10:33:30.081Z,100040.06
2022-08-22T10:36:05.644Z,100043.34
2022-08-22T10:38:46.428Z,100044.75
2022-08-22T10:41:28.675Z,100043.78
2022-08-22T10:44:06.479Z,100049.53
2022-08-22T10:46:42.059Z,100047.31
2022-08-22T10:49:17.949Z,100047.72
2022-08-22T10:51:53.518Z,100046.53
2022-08-22T10:54:38.696Z,100052.75
2022-08-22T10:57:20.665Z,100056.75
2022-08-22T10:59:58.727Z,100050.78
2022-08-22T11:02:42.250Z,100051.00
2022-08-22T11:05:44.502Z,100046.91
2022-08-22T11:09:02.858Z,100046.31
2022-08-22T11:11:44.278Z,100043.22
2022-08-22T11:14:33.029Z,100046.47
2022-08-22T11:17:28.255Z,100038.44
2022-08-22T11:20:15.965Z,100035.97
2022-08-22T11:22:55.808Z,100040.09
2022-08-22T11:25:43.807Z,100038.50
2022-08-22T11:28:34.520Z,100041.81
2022-08-22T11:31:12.577Z,100037.66
2022-08-22T11:33:52.055Z,100050.47
2022-08-22T11:36:33.563Z,100046.13
2022-08-22T11:39:13.891Z,100046.75
2022-08-22T11:41:56.601Z,100055.44
2022-08-22T11:44:34.774Z,100057.47
2022-08-22T11:47:26.537Z,63291.66
2022-08-22T11:50:00.805Z,63291.66
2022-08-22T11:52:42.633Z,63291.66
2022-08-22T11:55:23.425Z,63291.66
2022-08-22T11:57:56.506Z,63291.66
2022-08-22T12:00:32.584Z,63291.66
2022-08-22T12:03:23.394Z,63291.66
2022-08-22T12:05:56.543Z,63291.66
2022-08-22T12:09:13.215Z,63291.66
2022-08-22T12:11:50.522Z,63291.66
2022-08-22T12:14:27.873Z,63291.66
2022-08-22T12:17:21.262Z,63291.66
2022-08-22T12:20:16.758Z,63291.66
2022-08-22T12:23:11.195Z,63291.66
2022-08-22T12:25:56.302Z,63291.66
2022-08-22T12:28:35.109Z,63291.66
2022-08-22T12:31:12.409Z,63291.66
2022-08-22T12:34:01.446Z,63291.66
2022-08-22T12:36:55.231Z,63291.66
2022-08-22T12:39:41.227Z,63291.66
2022-08-22T12:42:39.907Z,63291.66
2022-08-22T12:45:40.374Z,63291.66
2022-08-22T12:48:23.632Z,63291.66
2022-08-22T12:50:59.772Z,63291.66
2022-08-22T12:54:08.536Z,63291.66
2022-08-22T12:56:47.448Z,63291.66
2022-08-22T12:59:29.930Z,63291.66
2022-08-22T13:02:02.574Z,63291.66
2022-08-22T13:04:35.461Z,63291.66
